createdAt,value
2022-08-03T00:02:19.492Z,3.07
2022-08-03T00:04:47.235Z,3.17
2022-08-03T00:07:15.015Z,3.00
2022-08-03T00:09:44.315Z,3.30
2022-08-03T00:12:12.084Z,2.90
2022-08-03T00:14:39.794Z,3.03
2022-08-03T00:17:07.741Z,3.27
2022-08-03T00:19:35.699Z,3.43
2022-08-03T00:22:03.318Z,3.20
2022-08-03T00:24:31.153Z,3.30
2022-08-03T00:27:00.257Z,3.27
2022-08-03T00:29:28.041Z,3.20
2022-08-03T00:32:00.128Z,3.20
2022-08-03T00:34:35.252Z,2.80
2022-08-03T00:37:16.378Z,3.13
2022-08-03T00:39:45.878Z,2.53
2022-08-03T00:42:15.607Z,2.67
2022-08-03T00:44:45.221Z,2.73
2022-08-03T00:47:12.836Z,3.27
2022-08-03T00:49:41.756Z,3.07
2022-08-03T00:52:10.604Z,3.30
2022-08-03T00:54:39.493Z,3.90
2022-08-03T00:57:08.138Z,3.57
2022-08-03T00:59:38.247Z,2.87
2022-08-03T01:02:06.430Z,3.30
2022-08-03T01:04:34.093Z,3.47
2022-08-03T01:07:10.664Z,3.23
2022-08-03T01:09:47.201Z,3.20
2022-08-03T01:12:23.446Z,3.70
2022-08-03T01:14:59.522Z,2.90
2022-08-03T01:17:35.389Z,3.23
2022-08-03T01:20:05.107Z,3.50
2022-08-03T01:22:57.088Z,3.10
2022-08-03T01:25:36.269Z,3.13
2022-08-03T01:28:17.350Z,3.33
2022-08-03T01:30:47.652Z,3.27
2022-08-03T01:33:20.167Z,3.30
2022-08-03T01:35:51.912Z,2.90
2022-08-03T01:38:25.713Z,3.23
2022-08-03T01:40:54.906Z,3.00
2022-08-03T01:44:26.443Z,3.90
2022-08-03T01:46:18.808Z,3.30
2022-08-03T01:48:48.510Z,3.13
2022-08-03T01:51:18.931Z,3.40
2022-08-03T01:53:49.160Z,2.90
2022-08-03T01:56:18.963Z,3.07
2022-08-03T01:58:49.290Z,3.60
2022-08-03T02:01:19.716Z,3.23
2022-08-03T02:03:59.768Z,3.00
2022-08-03T02:06:59.841Z,3.10
2022-08-03T02:09:21.713Z,3.43
2022-08-03T02:11:51.072Z,3.70
2022-08-03T02:14:21.042Z,3.40
2022-08-03T02:16:50.502Z,2.93
2022-08-03T02:19:20.117Z,3.30
2022-08-03T02:21:57.071Z,3.40
2022-08-03T02:24:29.465Z,3.73
2022-08-03T02:26:58.466Z,3.87
2022-08-03T02:29:38.754Z,3.90
2022-08-03T02:32:13.509Z,4.33
2022-08-03T02:34:46.125Z,3.90
2022-08-03T02:37:15.861Z,3.77
2022-08-03T02:39:45.828Z,3.73
2022-08-03T02:42:17.735Z,4.37
2022-08-03T02:44:50.850Z,4.07
2022-08-03T02:47:21.990Z,3.93
2022-08-03T02:49:52.572Z,4.07
2022-08-03T02:52:23.335Z,4.23
2022-08-03T02:54:57.258Z,4.20
2022-08-03T02:57:27.672Z,4.60
2022-08-03T02:59:56.340Z,4.60
2022-08-03T03:02:26.347Z,4.07
2022-08-03T03:05:53.267Z,4.77
2022-08-03T03:07:52.178Z,4.00
2022-08-03T03:10:22.429Z,4.07
2022-08-03T03:12:54.153Z,4.23
2022-08-03T03:15:22.169Z,4.90
2022-08-03T03:17:53.551Z,4.13
2022-08-03T03:20:26.746Z,4.90
2022-08-03T03:22:59.984Z,4.23
2022-08-03T03:25:29.023Z,4.40
2022-08-03T03:27:57.070Z,5.10
2022-08-03T03:30:26.069Z,4.60
2022-08-03T03:32:56.096Z,4.13
2022-08-03T03:35:23.918Z,4.97
2022-08-03T03:37:51.650Z,4.20
2022-08-03T03:40:19.525Z,5.03
2022-08-03T03:42:47.410Z,4.10
2022-08-03T03:45:15.518Z,4.80
2022-08-03T03:47:43.235Z,4.53
2022-08-03T03:50:13.010Z,5.10
2022-08-03T03:52:40.659Z,4.00
2022-08-03T03:55:09.044Z,4.50
2022-08-03T03:57:36.762Z,5.33
2022-08-03T04:00:06.175Z,4.70
2022-08-03T04:02:34.043Z,4.63
2022-08-03T04:05:19.515Z,4.87
2022-08-03T04:08:16.653Z,5.03
2022-08-03T04:11:01.548Z,4.97
2022-08-03T04:13:34.623Z,4.27
2022-08-03T04:16:05.302Z,4.70
2022-08-03T04:18:35.641Z,4.83
2022-08-03T04:21:06.875Z,4.90
2022-08-03T04:23:40.875Z,4.00
2022-08-03T04:26:13.347Z,4.70
2022-08-03T04:28:44.159Z,4.57
2022-08-03T04:31:11.715Z,4.47
2022-08-03T04:33:40.756Z,5.33
2022-08-03T04:36:10.593Z,4.67
2022-08-03T04:38:43.919Z,3.87
2022-08-03T04:41:12.680Z,4.20
2022-08-03T04:43:41.767Z,4.40
2022-08-03T04:46:10.086Z,3.73
2022-08-03T04:48:38.271Z,3.90
2022-08-03T04:51:06.789Z,4.10
2022-08-03T04:53:34.519Z,3.70
2022-08-03T04:56:07.516Z,4.00
2022-08-03T04:58:35.200Z,3.70
2022-08-03T05:01:02.939Z,3.57
2022-08-03T05:03:31.657Z,3.37
2022-08-03T05:06:02.004Z,3.97
2022-08-03T05:08:46.548Z,3.60
2022-08-03T05:11:16.488Z,4.47
2022-08-03T05:13:44.532Z,4.00
2022-08-03T05:16:13.730Z,4.37
2022-08-03T05:18:41.571Z,4.27
2022-08-03T05:21:09.814Z,4.33
2022-08-03T05:23:37.878Z,4.47
2022-08-03T05:26:05.704Z,4.60
2022-08-03T05:28:34.618Z,4.00
2022-08-03T05:31:02.284Z,4.60
2022-08-03T05:33:30.216Z,3.50
2022-08-03T05:36:03.257Z,3.47
2022-08-03T05:38:35.082Z,3.90
2022-08-03T05:41:21.855Z,3.67
2022-08-03T05:43:53.801Z,3.03
2022-08-03T05:46:22.509Z,3.20
2022-08-03T05:48:50.541Z,2.77
2022-08-03T05:51:18.315Z,2.77
2022-08-03T05:53:46.213Z,2.90
2022-08-03T05:56:19.885Z,3.87
2022-08-03T05:58:48.094Z,3.33
2022-08-03T06:01:17.766Z,2.70
2022-08-03T06:03:46.109Z,3.13
2022-08-03T06:06:14.022Z,3.00
2022-08-03T06:08:42.399Z,3.27
2022-08-03T06:11:10.099Z,2.97
2022-08-03T06:13:37.972Z,2.90
2022-08-03T06:16:06.346Z,2.80
2022-08-03T06:18:35.430Z,2.70
2022-08-03T06:21:14.333Z,2.40
2022-08-03T06:23:54.076Z,3.07
2022-08-03T06:26:24.707Z,2.85
2022-08-03T06:28:54.156Z,2.70
2022-08-03T06:31:32.346Z,3.10
2022-08-03T06:34:33.567Z,2.60
2022-08-03T06:37:01.656Z,2.70
2022-08-03T06:39:30.035Z,2.80
2022-08-03T06:41:58.199Z,2.88
2022-08-03T06:44:26.100Z,2.05
2022-08-03T06:46:56.011Z,2.65
2022-08-03T06:49:25.218Z,3.17
2022-08-03T06:52:03.798Z,2.55
2022-08-03T06:54:34.664Z,3.30
2022-08-03T06:57:02.329Z,2.50
2022-08-03T07:00:09.730Z,2.58
2022-08-03T07:02:19.709Z,2.58
2022-08-03T07:04:49.008Z,2.63
2022-08-03T07:07:17.343Z,2.30
2022-08-03T07:09:57.335Z,2.38
2022-08-03T07:12:27.704Z,3.33
2022-08-03T07:15:00.275Z,2.67
2022-08-03T07:17:29.536Z,2.47
2022-08-03T07:19:58.694Z,2.13
2022-08-03T07:22:26.600Z,2.30
2022-08-03T07:24:54.247Z,2.10
2022-08-03T07:27:22.474Z,2.47
2022-08-03T07:29:50.136Z,2.40
2022-08-03T07:32:18.280Z,2.28
2022-08-03T07:34:46.139Z,2.50
2022-08-03T07:37:15.128Z,2.67
2022-08-03T07:39:42.839Z,1.92
2022-08-03T07:42:10.493Z,2.47
2022-08-03T07:44:39.239Z,2.30
2022-08-03T07:47:07.033Z,3.45
2022-08-03T07:49:40.624Z,2.78
2022-08-03T07:52:26.509Z,2.95
2022-08-03T07:54:57.502Z,2.88
2022-08-03T07:57:25.336Z,2.30
2022-08-03T08:00:01.897Z,2.97
2022-08-03T08:02:30.141Z,3.05
2022-08-03T08:05:01.001Z,3.05
2022-08-03T08:07:31.240Z,3.20
2022-08-03T08:10:00.356Z,2.90
2022-08-03T08:12:28.046Z,2.88
2022-08-03T08:14:56.069Z,2.00
2022-08-03T08:17:23.922Z,2.45
2022-08-03T08:19:53.434Z,2.53
2022-08-03T08:22:30.202Z,2.13
2022-08-03T08:25:01.217Z,2.28
2022-08-03T08:28:25.292Z,2.70
2022-08-03T08:30:19.763Z,2.10
2022-08-03T08:32:47.707Z,2.33
2022-08-03T08:35:16.053Z,1.95
2022-08-03T08:37:44.305Z,2.20
2022-08-03T08:40:22.020Z,2.00
2022-08-03T08:42:58.899Z,2.17
2022-08-03T08:45:27.862Z,3.05
2022-08-03T08:48:02.535Z,2.83
2022-08-03T08:50:32.758Z,3.10
2022-08-03T08:53:03.710Z,2.80
2022-08-03T08:55:59.470Z,3.00
2022-08-03T08:58:23.713Z,2.30
2022-08-03T09:00:52.163Z,2.40
2022-08-03T09:03:29.050Z,2.38
2022-08-03T09:05:59.840Z,2.35
2022-08-03T09:08:27.468Z,2.67
2022-08-03T09:10:56.847Z,2.83
2022-08-03T09:13:24.600Z,2.30
2022-08-03T09:16:10.268Z,2.33
2022-08-03T09:18:37.877Z,2.27
2022-08-03T09:21:35.593Z,2.50
2022-08-03T09:24:06.304Z,2.30
2022-08-03T09:26:37.631Z,2.70
2022-08-03T09:29:13.213Z,3.17
2022-08-03T09:31:44.290Z,3.40
2022-08-03T09:34:13.908Z,3.23
2022-08-03T09:36:43.835Z,2.90
2022-08-03T09:39:12.982Z,2.83
2022-08-03T09:41:43.892Z,2.93
2022-08-03T09:44:24.095Z,2.60
2022-08-03T09:46:55.176Z,2.80
2022-08-03T09:49:23.626Z,2.83
2022-08-03T09:52:31.835Z,2.30
2022-08-03T09:54:39.344Z,2.70
2022-08-03T09:57:08.335Z,2.70
2022-08-03T09:59:38.123Z,2.77
2022-08-03T10:02:22.108Z,3.00
2022-08-03T10:04:52.409Z,2.90
2022-08-03T10:07:21.617Z,2.60
2022-08-03T10:09:58.477Z,3.03
2022-08-03T10:12:48.784Z,2.60
2022-08-03T10:16:23.785Z,2.63
2022-08-03T10:18:07.134Z,2.60
2022-08-03T10:20:39.263Z,2.77
2022-08-03T10:23:09.066Z,2.50
2022-08-03T10:25:40.626Z,2.23
2022-08-03T10:28:14.224Z,2.30
2022-08-03T10:30:43.738Z,2.50
2022-08-03T10:33:51.040Z,2.30
2022-08-03T10:36:08.313Z,2.10
2022-08-03T10:38:39.379Z,2.40
2022-08-03T10:41:09.182Z,2.77
2022-08-03T10:43:48.919Z,2.20
2022-08-03T10:46:20.182Z,2.37
2022-08-03T10:48:49.693Z,2.63
2022-08-03T10:51:18.090Z,2.07
2022-08-03T10:53:54.884Z,2.30
2022-08-03T10:57:03.406Z,2.50
2022-08-03T11:00:04.524Z,2.10
2022-08-03T11:03:09.952Z,2.80
2022-08-03T11:05:40.985Z,2.53
2022-08-03T11:08:26.634Z,2.40
2022-08-03T11:10:56.238Z,2.30
2022-08-03T11:13:25.944Z,2.60
2022-08-03T11:16:00.070Z,2.40
2022-08-03T11:18:30.455Z,2.23
2022-08-03T11:20:59.793Z,2.50
2022-08-03T11:24:05.164Z,2.10
2022-08-03T11:26:33.775Z,1.83
2022-08-03T11:29:36.922Z,2.13
2022-08-03T11:32:06.669Z,2.23
2022-08-03T11:34:34.308Z,2.40
2022-08-03T11:37:28.742Z,2.20
2022-08-03T11:40:02.861Z,2.30
2022-08-03T11:42:47.978Z,2.10
2022-08-03T11:45:16.305Z,2.20
2022-08-03T11:47:50.304Z,2.00
2022-08-03T11:50:19.927Z,2.13
2022-08-03T11:52:48.222Z,2.80
2022-08-03T11:55:20.224Z,2.30
2022-08-03T11:59:10.730Z,2.30
2022-08-03T12:00:36.137Z,2.17
2022-08-03T12:03:07.872Z,2.13
2022-08-03T12:05:54.936Z,2.00
2022-08-03T12:08:34.656Z,1.87
2022-08-03T12:11:05.697Z,2.10
2022-08-03T12:14:44.751Z,2.00
2022-08-03T12:16:29.785Z,1.57
2022-08-03T12:19:00.904Z,1.90
2022-08-03T12:21:29.416Z,2.00
2022-08-03T12:24:01.724Z,2.00
2022-08-03T12:26:30.286Z,1.90
2022-08-03T12:28:58.533Z,2.13
2022-08-03T12:31:26.310Z,2.20
2022-08-03T12:34:03.954Z,2.90
2022-08-03T12:36:33.905Z,2.30
2022-08-03T12:39:03.663Z,2.43
2022-08-03T12:41:34.169Z,2.17
2022-08-03T12:44:03.346Z,2.07
2022-08-03T12:46:33.666Z,2.20
2022-08-03T12:49:05.890Z,1.80
2022-08-03T12:51:35.537Z,2.30
2022-08-03T12:54:03.946Z,1.70
2022-08-03T12:56:31.610Z,1.90
2022-08-03T12:58:59.284Z,2.20
2022-08-03T13:01:28.752Z,2.30
2022-08-03T13:04:00.021Z,2.07
2022-08-03T13:06:30.624Z,2.00
2022-08-03T13:09:06.728Z,1.93
2022-08-03T13:11:57.402Z,1.90
2022-08-03T13:14:23.717Z,2.30
2022-08-03T13:16:51.610Z,2.20
2022-08-03T13:19:19.233Z,2.30
2022-08-03T13:22:03.430Z,2.10
2022-08-03T13:24:33.193Z,2.20
2022-08-03T13:27:02.803Z,2.30
2022-08-03T13:29:48.809Z,2.10
2022-08-03T13:32:16.576Z,2.30
2022-08-03T13:34:44.144Z,1.83
2022-08-03T13:37:13.836Z,2.10
2022-08-03T13:39:59.867Z,2.30
2022-08-03T13:42:29.332Z,2.00
2022-08-03T13:44:57.138Z,2.40
2022-08-03T13:47:24.851Z,2.07
2022-08-03T13:50:00.431Z,2.40
2022-08-03T13:52:32.509Z,2.03
2022-08-03T13:55:00.645Z,2.20
2022-08-03T13:58:04.669Z,1.70
2022-08-03T14:00:26.345Z,2.07
2022-08-03T14:03:02.692Z,1.97
2022-08-03T14:05:32.611Z,2.30
2022-08-03T14:08:03.856Z,1.60
2022-08-03T14:10:32.926Z,2.33
2022-08-03T14:13:01.188Z,1.83
2022-08-03T14:15:29.427Z,2.20
2022-08-03T14:17:58.584Z,1.80
2022-08-03T14:20:46.973Z,1.80
2022-08-03T14:23:16.475Z,1.90
2022-08-03T14:25:51.533Z,1.70
2022-08-03T14:28:22.294Z,1.73
2022-08-03T14:30:50.192Z,2.10
2022-08-03T14:33:18.021Z,1.60
2022-08-03T14:35:45.739Z,1.63
2022-08-03T14:38:13.371Z,1.60
2022-08-03T14:40:42.464Z,1.80
2022-08-03T14:43:10.097Z,2.07
2022-08-03T14:45:38.028Z,1.47
2022-08-03T14:50:35.016Z,1.90
2022-08-03T14:50:56.943Z,1.63
2022-08-03T14:53:24.907Z,1.90
2022-08-03T14:55:55.270Z,1.80
2022-08-03T14:58:25.246Z,2.00
2022-08-03T15:00:54.348Z,1.90
2022-08-03T15:03:24.651Z,1.80
2022-08-03T15:05:52.865Z,1.80
2022-08-03T15:08:20.868Z,1.73
2022-08-03T15:10:49.301Z,1.90
2022-08-03T15:13:19.595Z,2.27
2022-08-03T15:15:47.617Z,1.90
2022-08-03T15:18:15.319Z,1.83
2022-08-03T15:20:45.834Z,2.17
2022-08-03T15:23:14.651Z,2.13
2022-08-03T15:26:29.208Z,1.63
2022-08-03T15:28:31.439Z,1.77
2022-08-03T15:30:59.394Z,1.70
2022-08-03T15:33:27.105Z,1.60
2022-08-03T15:35:55.343Z,2.53
2022-08-03T15:38:25.779Z,1.97
2022-08-03T15:40:54.417Z,1.60
2022-08-03T15:43:22.524Z,2.17
2022-08-03T15:46:12.669Z,1.70
2022-08-03T15:48:40.979Z,1.80
2022-08-03T15:51:09.411Z,1.80
2022-08-03T15:53:37.392Z,1.97
2022-08-03T15:56:11.365Z,2.07
2022-08-03T15:59:03.478Z,1.80
2022-08-03T16:01:30.791Z,1.80
2022-08-03T16:03:58.521Z,1.90
2022-08-03T16:06:34.712Z,1.70
2022-08-03T16:09:03.253Z,1.70
2022-08-03T16:11:30.822Z,1.70
2022-08-03T16:14:13.350Z,1.50
2022-08-03T16:16:47.401Z,1.57
2022-08-03T16:19:14.945Z,1.57
2022-08-03T16:21:48.194Z,1.40
2022-08-03T16:24:19.872Z,1.50
2022-08-03T16:26:55.248Z,1.63
2022-08-03T16:29:23.622Z,1.60
2022-08-03T16:31:53.008Z,1.60
2022-08-03T16:34:20.951Z,1.80
2022-08-03T16:36:48.709Z,1.70
2022-08-03T16:39:16.370Z,2.00
2022-08-03T16:41:54.547Z,1.87
2022-08-03T16:44:30.444Z,1.80
2022-08-03T16:46:59.753Z,2.07
2022-08-03T16:49:54.429Z,1.93
2022-08-03T16:52:16.593Z,2.00
2022-08-03T16:54:50.694Z,1.67
2022-08-03T16:57:56.294Z,1.70
2022-08-03T17:00:12.436Z,1.90
2022-08-03T17:03:12.392Z,1.90
2022-08-03T17:05:47.907Z,1.80
2022-08-03T17:08:26.969Z,1.90
2022-08-03T17:10:56.039Z,1.50
2022-08-03T17:13:39.373Z,1.83
2022-08-03T17:16:11.852Z,1.43
2022-08-03T17:18:48.017Z,1.40
2022-08-03T17:21:23.576Z,1.93
2022-08-03T17:23:58.338Z,1.60
2022-08-03T17:26:30.611Z,1.80
2022-08-03T17:29:11.234Z,1.70
2022-08-03T17:31:48.459Z,1.53
2022-08-03T17:34:19.040Z,1.97
2022-08-03T17:37:03.647Z,1.57
2022-08-03T17:39:56.987Z,1.87
2022-08-03T17:42:30.798Z,1.70
2022-08-03T17:45:03.471Z,1.63
2022-08-03T17:47:41.124Z,1.60
2022-08-03T17:50:24.297Z,2.17
2022-08-03T17:53:00.850Z,2.30
2022-08-03T17:55:55.276Z,1.60
2022-08-03T17:58:25.331Z,1.70
2022-08-03T18:01:57.501Z,1.83
2022-08-03T18:04:10.642Z,1.80
2022-08-03T18:06:55.700Z,2.00
2022-08-03T18:10:03.668Z,1.90
2022-08-03T18:12:25.514Z,1.70
2022-08-03T18:15:01.340Z,1.83
2022-08-03T18:17:55.444Z,1.80
2022-08-03T18:20:33.003Z,1.73
2022-08-03T18:23:10.971Z,2.17
2022-08-03T18:25:58.070Z,1.97
2022-08-03T18:28:27.823Z,1.87
2022-08-03T18:30:58.771Z,1.80
2022-08-03T18:34:18.952Z,2.40
2022-08-03T18:36:22.044Z,1.90
2022-08-03T18:38:59.899Z,2.00
2022-08-03T18:41:32.157Z,2.30
2022-08-03T18:44:08.087Z,2.03
2022-08-03T18:46:48.865Z,2.43
2022-08-03T18:49:29.621Z,2.00
2022-08-03T18:52:03.732Z,2.43
2022-08-03T18:54:57.232Z,2.37
2022-08-03T18:57:38.248Z,2.33
2022-08-03T19:00:12.247Z,2.67
2022-08-03T19:02:48.729Z,2.50
2022-08-03T19:05:19.345Z,2.33
2022-08-03T19:07:58.378Z,2.50
2022-08-03T19:10:32.315Z,2.67
2022-08-03T19:13:05.488Z,2.33
2022-08-03T19:15:41.532Z,2.70
2022-08-03T19:18:21.410Z,2.30
2022-08-03T19:20:51.482Z,2.43
2022-08-03T19:23:25.013Z,2.50
2022-08-03T19:25:54.420Z,2.30
2022-08-03T19:28:30.096Z,2.67
2022-08-03T19:31:02.552Z,2.40
2022-08-03T19:33:55.687Z,2.40
2022-08-03T19:36:27.445Z,2.77
2022-08-03T19:38:56.583Z,2.70
2022-08-03T19:41:31.101Z,2.40
2022-08-03T19:44:11.506Z,2.43
2022-08-03T19:46:47.749Z,3.00
2022-08-03T19:49:17.325Z,3.10
2022-08-03T19:52:01.163Z,3.20
2022-08-03T19:54:39.576Z,2.50
2022-08-03T19:57:20.368Z,2.57
2022-08-03T19:59:51.841Z,2.90
2022-08-03T20:02:26.732Z,3.13
2022-08-03T20:04:55.952Z,3.30
2022-08-03T20:07:24.152Z,2.80
2022-08-03T20:09:54.499Z,3.10
2022-08-03T20:12:28.658Z,2.50
2022-08-03T20:14:57.993Z,2.27
2022-08-03T20:17:54.000Z,2.33
2022-08-03T20:20:13.795Z,2.40
2022-08-03T20:22:46.183Z,2.33
2022-08-03T20:25:21.041Z,2.20
2022-08-03T20:28:07.094Z,2.70
2022-08-03T20:30:47.483Z,2.80
2022-08-03T20:36:03.373Z,2.37
2022-08-03T20:38:31.019Z,2.40
2022-08-03T20:40:59.631Z,2.37
2022-08-03T20:43:28.621Z,2.40
2022-08-03T20:45:59.039Z,2.53
2022-08-03T20:48:48.684Z,2.70
2022-08-03T20:51:19.971Z,2.90
2022-08-03T20:54:20.762Z,2.60
2022-08-03T20:56:53.102Z,2.20
2022-08-03T20:59:22.457Z,2.60
2022-08-03T21:01:51.979Z,2.23
2022-08-03T21:04:22.400Z,2.60
2022-08-03T21:06:57.428Z,2.60
2022-08-03T21:12:19.901Z,2.10
2022-08-03T21:13:07.091Z,2.40
2022-08-03T21:13:14.084Z,2.10
2022-08-03T21:15:01.038Z,2.70
2022-08-03T21:17:41.455Z,2.60
2022-08-03T21:20:12.384Z,2.90
2022-08-03T21:22:46.258Z,3.27
2022-08-03T21:25:16.775Z,3.27
2022-08-03T21:27:44.823Z,2.63
2022-08-03T21:30:15.364Z,3.40
2022-08-03T21:32:45.473Z,2.73
2022-08-03T21:35:14.313Z,2.97
2022-08-03T21:37:43.960Z,3.43
2022-08-03T21:40:15.043Z,4.53
2022-08-03T21:42:45.003Z,3.30
2022-08-03T21:45:17.629Z,3.63
2022-08-03T21:47:46.860Z,3.13
2022-08-03T21:50:15.141Z,3.60
2022-08-03T21:52:45.098Z,3.47
2022-08-03T21:55:18.635Z,3.47
2022-08-03T21:57:52.553Z,4.13
2022-08-03T22:00:24.529Z,3.80
2022-08-03T22:02:55.834Z,4.30
2022-08-03T22:05:42.990Z,4.03
2022-08-03T22:08:13.660Z,3.53
2022-08-03T22:10:44.870Z,3.70
2022-08-03T22:13:13.153Z,3.70
2022-08-03T22:15:42.666Z,4.10
2022-08-03T22:18:11.090Z,3.70
2022-08-03T22:20:38.736Z,4.10
2022-08-03T22:23:07.685Z,3.73
2022-08-03T22:25:37.586Z,4.10
2022-08-03T22:28:12.900Z,3.43
2022-08-03T22:30:43.520Z,3.43
2022-08-03T22:33:12.551Z,3.43
2022-08-03T22:35:47.468Z,3.27
2022-08-03T22:38:16.453Z,3.80
2022-08-03T22:40:45.276Z,3.67
2022-08-03T22:43:13.067Z,3.70
2022-08-03T22:46:07.301Z,3.60
2022-08-03T22:48:35.153Z,3.63
2022-08-03T22:51:06.385Z,4.03
2022-08-03T22:53:35.417Z,4.23
2022-08-03T22:56:04.403Z,4.30
2022-08-03T22:58:32.212Z,4.10
2022-08-03T23:01:04.533Z,4.50
2022-08-03T23:04:00.661Z,3.87
2022-08-03T23:06:23.828Z,3.70
2022-08-03T23:08:51.874Z,3.40
2022-08-03T23:11:20.477Z,3.80
2022-08-03T23:13:53.086Z,4.00
2022-08-03T23:16:29.371Z,3.63
2022-08-03T23:18:59.415Z,3.30
2022-08-03T23:22:01.108Z,3.30
2022-08-03T23:24:26.131Z,3.10
2022-08-03T23:26:58.938Z,3.57
2022-08-03T23:29:27.434Z,3.40
2022-08-03T23:31:58.442Z,3.80
2022-08-03T23:34:44.399Z,3.40
2022-08-03T23:37:14.790Z,2.90
2022-08-03T23:39:45.573Z,3.20
2022-08-03T23:42:18.265Z,3.57
2022-08-03T23:44:47.095Z,3.57
2022-08-03T23:47:16.163Z,3.50
2022-08-03T23:49:44.334Z,3.23
2022-08-03T23:52:21.818Z,3.30
2022-08-03T23:55:08.759Z,3.40
2022-08-03T23:57:48.394Z,3.53
